sensor_id;sensor_type;location;lat;lon;timestamp;P1;durP1;ratioP1;P2;durP2;ratioP2
69621;SDS011;56841;55.964;37.674;2023-05-16T00:01:56;16.17;;;6.32;;
69621;SDS011;56841;55.964;37.674;2023-05-16T00:04:21;13.02;;;5.85;;
69621;SDS011;56841;55.964;37.674;2023-05-16T00:06:47;12.27;;;5.55;;
69621;SDS011;56841;55.964;37.674;2023-05-16T00:09:13;10.15;;;5.15;;
69621;SDS011;56841;55.964;37.674;2023-05-16T00:11:39;9.98;;;4.55;;
69621;SDS011;56841;55.964;37.674;2023-05-16T00:14:05;15.65;;;4.72;;
69621;SDS011;56841;55.964;37.674;2023-05-16T00:16:31;11.07;;;4.72;;
69621;SDS011;56841;55.964;37.674;2023-05-16T00:18:57;11.05;;;4.80;;
69621;SDS011;56841;55.964;37.674;2023-05-16T00:21:25;9.32;;;4.55;;
69621;SDS011;56841;55.964;37.674;2023-05-16T00:23:51;9.15;;;4.40;;
69621;SDS011;56841;55.964;37.674;2023-05-16T00:26:17;9.80;;;4.72;;
69621;SDS011;56841;55.964;37.674;2023-05-16T00:28:43;9.95;;;5.30;;
69621;SDS011;56841;55.964;37.674;2023-05-16T00:31:09;10.32;;;5.03;;
69621;SDS011;56841;55.964;37.674;2023-05-16T00:33:35;13.65;;;5.03;;
69621;SDS011;56841;55.964;37.674;2023-05-16T00:36:00;10.20;;;4.53;;
69621;SDS011;56841;55.964;37.674;2023-05-16T00:38:26;8.82;;;4.22;;
69621;SDS011;56841;55.964;37.674;2023-05-16T00:40:52;9.20;;;4.32;;
69621;SDS011;56841;55.964;37.674;2023-05-16T00:43:18;9.07;;;4.03;;
69621;SDS011;56841;55.964;37.674;2023-05-16T00:45:44;8.93;;;3.90;;
69621;SDS011;56841;55.964;37.674;2023-05-16T00:48:12;10.00;;;4.13;;
69621;SDS011;56841;55.964;37.674;2023-05-16T00:50:39;8.15;;;4.15;;
69621;SDS011;56841;55.964;37.674;2023-05-16T00:53:06;8.80;;;4.30;;
69621;SDS011;56841;55.964;37.674;2023-05-16T00:55:31;12.82;;;4.68;;
69621;SDS011;56841;55.964;37.674;2023-05-16T00:57:59;10.60;;;6.25;;
69621;SDS011;56841;55.964;37.674;2023-05-16T01:00:25;11.48;;;6.30;;
69621;SDS011;56841;55.964;37.674;2023-05-16T01:02:51;14.07;;;5.72;;
69621;SDS011;56841;55.964;37.674;2023-05-16T01:05:18;13.10;;;5.85;;
69621;SDS011;56841;55.964;37.674;2023-05-16T01:07:45;15.35;;;5.65;;
69621;SDS011;56841;55.964;37.674;2023-05-16T01:10:11;11.38;;;5.30;;
69621;SDS011;56841;55.964;37.674;2023-05-16T01:12:41;17.83;;;7.15;;
69621;SDS011;56841;55.964;37.674;2023-05-16T01:15:21;16.52;;;7.38;;
69621;SDS011;56841;55.964;37.674;2023-05-16T01:28:22;18.95;;;7.43;;
69621;SDS011;56841;55.964;37.674;2023-05-16T01:30:50;15.20;;;6.85;;
69621;SDS011;56841;55.964;37.674;2023-05-16T01:33:16;16.48;;;7.00;;
69621;SDS011;56841;55.964;37.674;2023-05-16T01:35:46;23.98;;;7.82;;
69621;SDS011;56841;55.964;37.674;2023-05-16T01:38:25;27.15;;;7.63;;
69621;SDS011;56841;55.964;37.674;2023-05-16T01:41:06;30.95;;;7.43;;
69621;SDS011;56841;55.964;37.674;2023-05-16T01:43:45;21.98;;;7.40;;
69621;SDS011;56841;55.964;37.674;2023-05-16T01:46:19;22.50;;;7.25;;
69621;SDS011;56841;55.964;37.674;2023-05-16T01:48:51;21.50;;;7.93;;
69621;SDS011;56841;55.964;37.674;2023-05-16T01:51:31;19.60;;;7.32;;
69621;SDS011;56841;55.964;37.674;2023-05-16T01:54:04;22.33;;;8.43;;
69621;SDS011;56841;55.964;37.674;2023-05-16T01:56:33;21.75;;;7.88;;
69621;SDS011;56841;55.964;37.674;2023-05-16T01:59:01;18.65;;;7.28;;
69621;SDS011;56841;55.964;37.674;2023-05-16T02:01:31;19.67;;;7.20;;
69621;SDS011;56841;55.964;37.674;2023-05-16T02:03:57;22.50;;;7.75;;
69621;SDS011;56841;55.964;37.674;2023-05-16T02:06:23;24.83;;;7.32;;
69621;SDS011;56841;55.964;37.674;2023-05-16T02:08:50;23.63;;;8.20;;
69621;SDS011;56841;55.964;37.674;2023-05-16T02:11:16;23.08;;;8.32;;
69621;SDS011;56841;55.964;37.674;2023-05-16T02:13:43;19.33;;;8.48;;
69621;SDS011;56841;55.964;37.674;2023-05-16T02:16:09;21.70;;;8.23;;
69621;SDS011;56841;55.964;37.674;2023-05-16T02:18:36;23.00;;;8.13;;
69621;SDS011;56841;55.964;37.674;2023-05-16T02:21:03;20.30;;;7.53;;
69621;SDS011;56841;55.964;37.674;2023-05-16T02:23:29;23.02;;;7.93;;
69621;SDS011;56841;55.964;37.674;2023-05-16T02:25:55;21.27;;;7.43;;
69621;SDS011;56841;55.964;37.674;2023-05-16T02:28:21;25.42;;;7.47;;
69621;SDS011;56841;55.964;37.674;2023-05-16T02:30:54;18.98;;;7.82;;
69621;SDS011;56841;55.964;37.674;2023-05-16T02:33:24;23.35;;;7.93;;
69621;SDS011;56841;55.964;37.674;2023-05-16T02:35:51;20.65;;;7.55;;
69621;SDS011;56841;55.964;37.674;2023-05-16T02:38:18;19.90;;;7.40;;
69621;SDS011;56841;55.964;37.674;2023-05-16T02:40:48;20.15;;;7.25;;
69621;SDS011;56841;55.964;37.674;2023-05-16T02:43:15;20.02;;;7.03;;
69621;SDS011;56841;55.964;37.674;2023-05-16T02:45:42;23.15;;;7.95;;
69621;SDS011;56841;55.964;37.674;2023-05-16T02:48:08;21.55;;;7.20;;
69621;SDS011;56841;55.964;37.674;2023-05-16T02:50:33;25.08;;;7.43;;
69621;SDS011;56841;55.964;37.674;2023-05-16T02:52:59;19.10;;;6.80;;
69621;SDS011;56841;55.964;37.674;2023-05-16T02:55:27;16.30;;;7.03;;
69621;SDS011;56841;55.964;37.674;2023-05-16T02:57:53;16.23;;;7.13;;
69621;SDS011;56841;55.964;37.674;2023-05-16T03:00:19;15.55;;;6.50;;
69621;SDS011;56841;55.964;37.674;2023-05-16T03:02:45;16.15;;;6.65;;
69621;SDS011;56841;55.964;37.674;2023-05-16T03:05:11;18.55;;;6.93;;
69621;SDS011;56841;55.964;37.674;2023-05-16T03:07:38;19.90;;;7.30;;
69621;SDS011;56841;55.964;37.674;2023-05-16T03:10:04;14.07;;;6.32;;
69621;SDS011;56841;55.964;37.674;2023-05-16T03:12:31;13.15;;;5.57;;
69621;SDS011;56841;55.964;37.674;2023-05-16T03:14:57;12.00;;;5.28;;
69621;SDS011;56841;55.964;37.674;2023-05-16T03:17:23;16.80;;;5.45;;
69621;SDS011;56841;55.964;37.674;2023-05-16T03:19:50;13.23;;;5.53;;
69621;SDS011;56841;55.964;37.674;2023-05-16T03:22:16;11.82;;;5.20;;
69621;SDS011;56841;55.964;37.674;2023-05-16T03:24:41;11.95;;;5.15;;
69621;SDS011;56841;55.964;37.674;2023-05-16T03:27:10;11.90;;;4.40;;
69621;SDS011;56841;55.964;37.674;2023-05-16T03:29:36;14.35;;;5.28;;
69621;SDS011;56841;55.964;37.674;2023-05-16T03:32:02;12.48;;;5.03;;
69621;SDS011;56841;55.964;37.674;2023-05-16T03:34:28;19.60;;;5.07;;
69621;SDS011;56841;55.964;37.674;2023-05-16T03:36:53;11.85;;;4.60;;
69621;SDS011;56841;55.964;37.674;2023-05-16T03:39:20;9.93;;;4.15;;
69621;SDS011;56841;55.964;37.674;2023-05-16T03:41:45;12.10;;;4.30;;
69621;SDS011;56841;55.964;37.674;2023-05-16T03:44:11;10.57;;;4.53;;
69621;SDS011;56841;55.964;37.674;2023-05-16T03:46:37;9.02;;;4.45;;
69621;SDS011;56841;55.964;37.674;2023-05-16T03:49:03;11.93;;;4.45;;
69621;SDS011;56841;55.964;37.674;2023-05-16T03:51:28;10.13;;;4.43;;
69621;SDS011;56841;55.964;37.674;2023-05-16T03:53:54;11.10;;;4.63;;
69621;SDS011;56841;55.964;37.674;2023-05-16T03:56:20;12.48;;;3.80;;
69621;SDS011;56841;55.964;37.674;2023-05-16T03:58:47;11.02;;;4.05;;
69621;SDS011;56841;55.964;37.674;2023-05-16T04:01:12;13.07;;;4.07;;
69621;SDS011;56841;55.964;37.674;2023-05-16T04:03:38;11.65;;;4.13;;
69621;SDS011;56841;55.964;37.674;2023-05-16T04:06:05;10.98;;;4.72;;
69621;SDS011;56841;55.964;37.674;2023-05-16T04:08:31;15.93;;;5.00;;
69621;SDS011;56841;55.964;37.674;2023-05-16T04:10:57;14.82;;;5.05;;
69621;SDS011;56841;55.964;37.674;2023-05-16T04:13:22;11.00;;;4.50;;
69621;SDS011;56841;55.964;37.674;2023-05-16T04:15:49;12.38;;;3.92;;
69621;SDS011;56841;55.964;37.674;2023-05-16T04:18:15;18.17;;;6.13;;
69621;SDS011;56841;55.964;37.674;2023-05-16T04:20:41;10.57;;;3.90;;
69621;SDS011;56841;55.964;37.674;2023-05-16T04:23:08;10.50;;;4.30;;
69621;SDS011;56841;55.964;37.674;2023-05-16T04:25:36;12.15;;;4.30;;
69621;SDS011;56841;55.964;37.674;2023-05-16T04:28:02;15.63;;;4.05;;
69621;SDS011;56841;55.964;37.674;2023-05-16T04:30:28;18.77;;;4.50;;
69621;SDS011;56841;55.964;37.674;2023-05-16T04:32:54;12.50;;;3.80;;
69621;SDS011;56841;55.964;37.674;2023-05-16T04:35:21;16.55;;;3.83;;
69621;SDS011;56841;55.964;37.674;2023-05-16T04:37:47;15.82;;;4.32;;
69621;SDS011;56841;55.964;37.674;2023-05-16T04:40:13;10.02;;;3.92;;
69621;SDS011;56841;55.964;37.674;2023-05-16T04:42:39;15.85;;;4.10;;
69621;SDS011;56841;55.964;37.674;2023-05-16T04:45:05;11.13;;;3.70;;
69621;SDS011;56841;55.964;37.674;2023-05-16T04:47:35;7.00;;;3.33;;
69621;SDS011;56841;55.964;37.674;2023-05-16T04:50:01;8.55;;;3.00;;
69621;SDS011;56841;55.964;37.674;2023-05-16T04:52:27;7.85;;;3.00;;
69621;SDS011;56841;55.964;37.674;2023-05-16T04:54:53;8.45;;;2.83;;
69621;SDS011;56841;55.964;37.674;2023-05-16T04:57:19;7.13;;;3.08;;
69621;SDS011;56841;55.964;37.674;2023-05-16T04:59:45;6.80;;;2.70;;
69621;SDS011;56841;55.964;37.674;2023-05-16T05:02:10;7.38;;;2.67;;
69621;SDS011;56841;55.964;37.674;2023-05-16T05:04:36;8.00;;;2.92;;
69621;SDS011;56841;55.964;37.674;2023-05-16T05:07:02;7.45;;;2.95;;
69621;SDS011;56841;55.964;37.674;2023-05-16T05:09:28;9.60;;;2.58;;
69621;SDS011;56841;55.964;37.674;2023-05-16T05:11:54;6.97;;;3.03;;
69621;SDS011;56841;55.964;37.674;2023-05-16T05:14:20;5.85;;;2.60;;
69621;SDS011;56841;55.964;37.674;2023-05-16T05:16:45;6.53;;;2.25;;
69621;SDS011;56841;55.964;37.674;2023-05-16T05:19:11;7.82;;;2.72;;
69621;SDS011;56841;55.964;37.674;2023-05-16T05:21:37;9.30;;;2.80;;
69621;SDS011;56841;55.964;37.674;2023-05-16T05:24:03;8.30;;;2.80;;
69621;SDS011;56841;55.964;37.674;2023-05-16T05:26:29;6.18;;;2.70;;
69621;SDS011;56841;55.964;37.674;2023-05-16T05:28:55;4.22;;;2.30;;
69621;SDS011;56841;55.964;37.674;2023-05-16T05:31:21;8.48;;;2.25;;
69621;SDS011;56841;55.964;37.674;2023-05-16T05:33:46;3.65;;;1.92;;
69621;SDS011;56841;55.964;37.674;2023-05-16T05:36:12;6.88;;;1.90;;
69621;SDS011;56841;55.964;37.674;2023-05-16T05:38:38;5.80;;;2.60;;
69621;SDS011;56841;55.964;37.674;2023-05-16T05:41:04;5.80;;;2.08;;
69621;SDS011;56841;55.964;37.674;2023-05-16T05:43:31;3.53;;;1.42;;
69621;SDS011;56841;55.964;37.674;2023-05-16T05:45:56;5.68;;;1.80;;
69621;SDS011;56841;55.964;37.674;2023-05-16T05:48:22;7.25;;;2.15;;
69621;SDS011;56841;55.964;37.674;2023-05-16T05:50:48;4.65;;;1.60;;
69621;SDS011;56841;55.964;37.674;2023-05-16T05:53:14;7.75;;;2.10;;
69621;SDS011;56841;55.964;37.674;2023-05-16T05:55:39;3.67;;;1.52;;
69621;SDS011;56841;55.964;37.674;2023-05-16T05:58:06;3.40;;;1.52;;
69621;SDS011;56841;55.964;37.674;2023-05-16T06:00:32;7.38;;;1.50;;
69621;SDS011;56841;55.964;37.674;2023-05-16T06:02:57;3.78;;;1.40;;
69621;SDS011;56841;55.964;37.674;2023-05-16T06:05:23;5.60;;;1.33;;
69621;SDS011;56841;55.964;37.674;2023-05-16T06:07:49;4.63;;;1.48;;
69621;SDS011;56841;55.964;37.674;2023-05-16T06:10:15;4.90;;;1.42;;
69621;SDS011;56841;55.964;37.674;2023-05-16T06:12:40;3.45;;;1.40;;
69621;SDS011;56841;55.964;37.674;2023-05-16T06:15:06;4.32;;;1.33;;
69621;SDS011;56841;55.964;37.674;2023-05-16T06:17:32;5.78;;;1.50;;
69621;SDS011;56841;55.964;37.674;2023-05-16T06:19:58;5.85;;;1.30;;
69621;SDS011;56841;55.964;37.674;2023-05-16T06:22:24;8.13;;;1.67;;
69621;SDS011;56841;55.964;37.674;2023-05-16T06:24:50;4.82;;;1.60;;
69621;SDS011;56841;55.964;37.674;2023-05-16T06:27:16;7.22;;;1.38;;
69621;SDS011;56841;55.964;37.674;2023-05-16T06:29:41;6.45;;;1.50;;
69621;SDS011;56841;55.964;37.674;2023-05-16T06:32:07;6.47;;;1.40;;
69621;SDS011;56841;55.964;37.674;2023-05-16T06:34:33;3.25;;;1.23;;
69621;SDS011;56841;55.964;37.674;2023-05-16T06:36:58;2.60;;;1.23;;
69621;SDS011;56841;55.964;37.674;2023-05-16T06:39:25;5.78;;;1.20;;
69621;SDS011;56841;55.964;37.674;2023-05-16T06:41:50;13.63;;;1.70;;
69621;SDS011;56841;55.964;37.674;2023-05-16T06:44:17;5.65;;;1.20;;
69621;SDS011;56841;55.964;37.674;2023-05-16T06:46:43;11.48;;;1.75;;
69621;SDS011;56841;55.964;37.674;2023-05-16T06:49:09;3.78;;;1.30;;
69621;SDS011;56841;55.964;37.674;2023-05-16T06:51:35;5.85;;;1.23;;
69621;SDS011;56841;55.964;37.674;2023-05-16T06:54:00;9.85;;;1.30;;
69621;SDS011;56841;55.964;37.674;2023-05-16T06:56:26;5.32;;;1.38;;
69621;SDS011;56841;55.964;37.674;2023-05-16T06:58:53;2.97;;;1.10;;
69621;SDS011;56841;55.964;37.674;2023-05-16T07:01:18;3.13;;;1.23;;
69621;SDS011;56841;55.964;37.674;2023-05-16T07:03:44;4.18;;;1.15;;
69621;SDS011;56841;55.964;37.674;2023-05-16T07:06:10;3.38;;;1.20;;
69621;SDS011;56841;55.964;37.674;2023-05-16T07:08:35;5.30;;;1.33;;
69621;SDS011;56841;55.964;37.674;2023-05-16T07:11:01;3.75;;;1.35;;
69621;SDS011;56841;55.964;37.674;2023-05-16T07:13:27;5.35;;;1.23;;
69621;SDS011;56841;55.964;37.674;2023-05-16T07:15:53;5.45;;;1.42;;
69621;SDS011;56841;55.964;37.674;2023-05-16T07:18:18;3.67;;;1.13;;
69621;SDS011;56841;55.964;37.674;2023-05-16T07:20:44;3.58;;;1.17;;
69621;SDS011;56841;55.964;37.674;2023-05-16T07:23:10;2.75;;;1.40;;
69621;SDS011;56841;55.964;37.674;2023-05-16T07:25:36;6.57;;;1.27;;
69621;SDS011;56841;55.964;37.674;2023-05-16T07:28:02;3.88;;;1.30;;
69621;SDS011;56841;55.964;37.674;2023-05-16T07:30:28;2.78;;;1.00;;
69621;SDS011;56841;55.964;37.674;2023-05-16T07:32:54;2.30;;;0.88;;
69621;SDS011;56841;55.964;37.674;2023-05-16T07:35:20;3.33;;;0.82;;
69621;SDS011;56841;55.964;37.674;2023-05-16T07:37:46;4.05;;;1.00;;
69621;SDS011;56841;55.964;37.674;2023-05-16T07:40:12;5.40;;;1.10;;
69621;SDS011;56841;55.964;37.674;2023-05-16T07:42:38;3.58;;;1.08;;
69621;SDS011;56841;55.964;37.674;2023-05-16T07:45:04;3.08;;;1.10;;
69621;SDS011;56841;55.964;37.674;2023-05-16T07:47:31;3.90;;;1.05;;
69621;SDS011;56841;55.964;37.674;2023-05-16T07:49:57;8.30;;;1.23;;
69621;SDS011;56841;55.964;37.674;2023-05-16T07:52:23;4.40;;;1.02;;
69621;SDS011;56841;55.964;37.674;2023-05-16T07:54:49;2.60;;;1.20;;
69621;SDS011;56841;55.964;37.674;2023-05-16T07:57:15;3.83;;;1.20;;
69621;SDS011;56841;55.964;37.674;2023-05-16T07:59:41;3.30;;;1.00;;
69621;SDS011;56841;55.964;37.674;2023-05-16T08:02:09;5.47;;;1.00;;
69621;SDS011;56841;55.964;37.674;2023-05-16T08:04:35;3.08;;;0.90;;
69621;SDS011;56841;55.964;37.674;2023-05-16T08:07:01;5.15;;;1.10;;
69621;SDS011;56841;55.964;37.674;2023-05-16T08:09:27;2.75;;;0.77;;
69621;SDS011;56841;55.964;37.674;2023-05-16T08:11:53;2.33;;;0.63;;
69621;SDS011;56841;55.964;37.674;2023-05-16T08:14:19;3.45;;;1.00;;
69621;SDS011;56841;55.964;37.674;2023-05-16T08:16:45;3.53;;;0.90;;
69621;SDS011;56841;55.964;37.674;2023-05-16T08:19:11;5.65;;;1.20;;
69621;SDS011;56841;55.964;37.674;2023-05-16T08:21:37;2.38;;;0.75;;
69621;SDS011;56841;55.964;37.674;2023-05-16T08:24:03;3.95;;;1.00;;
69621;SDS011;56841;55.964;37.674;2023-05-16T08:26:29;5.40;;;0.95;;
69621;SDS011;56841;55.964;37.674;2023-05-16T08:28:56;3.13;;;1.20;;
69621;SDS011;56841;55.964;37.674;2023-05-16T08:31:22;15.30;;;1.30;;
69621;SDS011;56841;55.964;37.674;2023-05-16T08:33:47;15.65;;;1.77;;
69621;SDS011;56841;55.964;37.674;2023-05-16T08:36:13;3.90;;;1.00;;
69621;SDS011;56841;55.964;37.674;2023-05-16T08:38:40;5.65;;;1.17;;
69621;SDS011;56841;55.964;37.674;2023-05-16T08:41:06;2.55;;;1.00;;
69621;SDS011;56841;55.964;37.674;2023-05-16T08:43:32;2.83;;;1.17;;
69621;SDS011;56841;55.964;37.674;2023-05-16T08:45:59;3.00;;;1.10;;
69621;SDS011;56841;55.964;37.674;2023-05-16T08:48:25;4.25;;;1.08;;
69621;SDS011;56841;55.964;37.674;2023-05-16T08:50:53;2.88;;;1.02;;
69621;SDS011;56841;55.964;37.674;2023-05-16T08:53:24;5.30;;;1.23;;
69621;SDS011;56841;55.964;37.674;2023-05-16T08:55:56;2.38;;;1.27;;
69621;SDS011;56841;55.964;37.674;2023-05-16T08:58:23;4.70;;;1.20;;
69621;SDS011;56841;55.964;37.674;2023-05-16T09:00:51;5.35;;;1.10;;
69621;SDS011;56841;55.964;37.674;2023-05-16T09:03:17;5.47;;;1.40;;
69621;SDS011;56841;55.964;37.674;2023-05-16T09:05:45;15.77;;;1.75;;
69621;SDS011;56841;55.964;37.674;2023-05-16T09:08:11;5.85;;;1.55;;
69621;SDS011;56841;55.964;37.674;2023-05-16T09:10:37;6.57;;;1.73;;
69621;SDS011;56841;55.964;37.674;2023-05-16T09:13:03;7.57;;;1.67;;
69621;SDS011;56841;55.964;37.674;2023-05-16T09:15:32;4.75;;;1.50;;
69621;SDS011;56841;55.964;37.674;2023-05-16T09:18:01;3.03;;;1.02;;
69621;SDS011;56841;55.964;37.674;2023-05-16T09:20:27;4.53;;;1.40;;
69621;SDS011;56841;55.964;37.674;2023-05-16T09:22:53;9.57;;;1.60;;
69621;SDS011;56841;55.964;37.674;2023-05-16T09:25:21;4.97;;;1.90;;
69621;SDS011;56841;55.964;37.674;2023-05-16T09:27:54;6.97;;;1.60;;
69621;SDS011;56841;55.964;37.674;2023-05-16T09:30:21;4.47;;;1.60;;
69621;SDS011;56841;55.964;37.674;2023-05-16T09:32:51;4.78;;;1.70;;
69621;SDS011;56841;55.964;37.674;2023-05-16T09:35:18;6.65;;;1.70;;
69621;SDS011;56841;55.964;37.674;2023-05-16T09:37:45;3.45;;;1.45;;
69621;SDS011;56841;55.964;37.674;2023-05-16T09:40:12;5.75;;;1.60;;
69621;SDS011;56841;55.964;37.674;2023-05-16T09:42:38;4.75;;;1.42;;
69621;SDS011;56841;55.964;37.674;2023-05-16T09:45:04;3.53;;;1.30;;
69621;SDS011;56841;55.964;37.674;2023-05-16T09:47:31;3.53;;;1.30;;
69621;SDS011;56841;55.964;37.674;2023-05-16T09:49:57;4.70;;;1.48;;
69621;SDS011;56841;55.964;37.674;2023-05-16T09:52:26;5.03;;;1.33;;
69621;SDS011;56841;55.964;37.674;2023-05-16T09:54:52;4.50;;;1.80;;
69621;SDS011;56841;55.964;37.674;2023-05-16T09:57:19;6.47;;;1.35;;
69621;SDS011;56841;55.964;37.674;2023-05-16T09:59:51;3.03;;;1.25;;
69621;SDS011;56841;55.964;37.674;2023-05-16T10:02:17;4.75;;;1.60;;
69621;SDS011;56841;55.964;37.674;2023-05-16T10:04:44;5.68;;;1.52;;
69621;SDS011;56841;55.964;37.674;2023-05-16T10:07:10;7.82;;;1.42;;
69621;SDS011;56841;55.964;37.674;2023-05-16T10:09:38;7.90;;;1.35;;
69621;SDS011;56841;55.964;37.674;2023-05-16T10:12:05;5.18;;;1.60;;
69621;SDS011;56841;55.964;37.674;2023-05-16T10:14:33;8.63;;;1.30;;
69621;SDS011;56841;55.964;37.674;2023-05-16T10:17:02;8.45;;;1.48;;
69621;SDS011;56841;55.964;37.674;2023-05-16T10:19:30;4.70;;;1.48;;
69621;SDS011;56841;55.964;37.674;2023-05-16T10:21:59;5.03;;;1.10;;
69621;SDS011;56841;55.964;37.674;2023-05-16T10:24:30;6.55;;;2.28;;
69621;SDS011;56841;55.964;37.674;2023-05-16T10:27:03;3.08;;;1.30;;
69621;SDS011;56841;55.964;37.674;2023-05-16T10:29:29;4.65;;;1.27;;
69621;SDS011;56841;55.964;37.674;2023-05-16T10:31:56;8.65;;;1.50;;
69621;SDS011;56841;55.964;37.674;2023-05-16T10:34:23;4.43;;;1.30;;
69621;SDS011;56841;55.964;37.674;2023-05-16T10:36:50;4.93;;;1.30;;
69621;SDS011;56841;55.964;37.674;2023-05-16T10:39:17;3.83;;;1.40;;
69621;SDS011;56841;55.964;37.674;2023-05-16T10:41:44;4.60;;;1.52;;
69621;SDS011;56841;55.964;37.674;2023-05-16T10:44:13;5.63;;;1.55;;
69621;SDS011;56841;55.964;37.674;2023-05-16T10:46:42;2.53;;;1.20;;
69621;SDS011;56841;55.964;37.674;2023-05-16T10:49:20;3.22;;;1.23;;
69621;SDS011;56841;55.964;37.674;2023-05-16T10:57:10;2.90;;;1.30;;
69621;SDS011;56841;55.964;37.674;2023-05-16T10:59:40;3.13;;;1.10;;
69621;SDS011;56841;55.964;37.674;2023-05-16T11:02:21;3.85;;;1.00;;
69621;SDS011;56841;55.964;37.674;2023-05-16T11:04:48;3.33;;;0.95;;
69621;SDS011;56841;55.964;37.674;2023-05-16T11:07:19;4.45;;;1.27;;
69621;SDS011;56841;55.964;37.674;2023-05-16T11:10:03;2.65;;;1.00;;
69621;SDS011;56841;55.964;37.674;2023-05-16T11:12:57;4.47;;;1.13;;
69621;SDS011;56841;55.964;37.674;2023-05-16T11:15:31;6.35;;;1.33;;
69621;SDS011;56841;55.964;37.674;2023-05-16T11:18:06;5.13;;;1.30;;
69621;SDS011;56841;55.964;37.674;2023-05-16T11:20:34;5.30;;;1.00;;
69621;SDS011;56841;55.964;37.674;2023-05-16T11:23:25;7.43;;;0.93;;
69621;SDS011;56841;55.964;37.674;2023-05-16T11:25:51;5.35;;;1.15;;
69621;SDS011;56841;55.964;37.674;2023-05-16T11:28:19;1.45;;;0.57;;
69621;SDS011;56841;55.964;37.674;2023-05-16T11:30:49;4.60;;;0.93;;
69621;SDS011;56841;55.964;37.674;2023-05-16T11:33:19;2.70;;;0.90;;
69621;SDS011;56841;55.964;37.674;2023-05-16T11:38:31;3.08;;;1.10;;
69621;SDS011;56841;55.964;37.674;2023-05-16T11:41:03;4.10;;;1.13;;
69621;SDS011;56841;55.964;37.674;2023-05-16T11:43:37;1.85;;;0.63;;
69621;SDS011;56841;55.964;37.674;2023-05-16T11:46:11;2.10;;;1.05;;
69621;SDS011;56841;55.964;37.674;2023-05-16T11:48:37;6.72;;;1.15;;
69621;SDS011;56841;55.964;37.674;2023-05-16T11:51:03;3.53;;;1.10;;
69621;SDS011;56841;55.964;37.674;2023-05-16T11:53:29;3.78;;;1.25;;
69621;SDS011;56841;55.964;37.674;2023-05-16T11:55:55;4.72;;;1.30;;
69621;SDS011;56841;55.964;37.674;2023-05-16T11:58:21;3.22;;;1.13;;
69621;SDS011;56841;55.964;37.674;2023-05-16T12:00:47;6.65;;;1.15;;
69621;SDS011;56841;55.964;37.674;2023-05-16T12:03:14;5.00;;;1.30;;
69621;SDS011;56841;55.964;37.674;2023-05-16T12:05:53;14.43;;;1.63;;
69621;SDS011;56841;55.964;37.674;2023-05-16T12:08:21;8.15;;;3.05;;
69621;SDS011;56841;55.964;37.674;2023-05-16T12:10:50;3.65;;;1.20;;
69621;SDS011;56841;55.964;37.674;2023-05-16T12:13:17;7.10;;;2.00;;
69621;SDS011;56841;55.964;37.674;2023-05-16T12:15:45;21.52;;;13.05;;
69621;SDS011;56841;55.964;37.674;2023-05-16T12:18:11;12.30;;;5.72;;
69621;SDS011;56841;55.964;37.674;2023-05-16T12:20:38;5.13;;;1.30;;
69621;SDS011;56841;55.964;37.674;2023-05-16T12:23:04;2.47;;;1.17;;
69621;SDS011;56841;55.964;37.674;2023-05-16T12:25:34;11.70;;;2.45;;
69621;SDS011;56841;55.964;37.674;2023-05-16T12:28:02;5.70;;;1.90;;
69621;SDS011;56841;55.964;37.674;2023-05-16T12:30:30;4.82;;;1.25;;
69621;SDS011;56841;55.964;37.674;2023-05-16T12:35:23;4.45;;;1.42;;
69621;SDS011;56841;55.964;37.674;2023-05-16T12:37:49;3.40;;;1.20;;
69621;SDS011;56841;55.964;37.674;2023-05-16T12:40:16;7.72;;;1.55;;
69621;SDS011;56841;55.964;37.674;2023-05-16T12:42:42;4.38;;;1.20;;
69621;SDS011;56841;55.964;37.674;2023-05-16T12:45:15;4.65;;;1.70;;
69621;SDS011;56841;55.964;37.674;2023-05-16T12:47:42;3.05;;;1.17;;
69621;SDS011;56841;55.964;37.674;2023-05-16T12:50:12;4.03;;;1.20;;
69621;SDS011;56841;55.964;37.674;2023-05-16T12:55:15;5.13;;;1.40;;
69621;SDS011;56841;55.964;37.674;2023-05-16T12:57:47;5.47;;;1.70;;
69621;SDS011;56841;55.964;37.674;2023-05-16T13:00:15;3.83;;;1.67;;
69621;SDS011;56841;55.964;37.674;2023-05-16T13:02:43;2.72;;;1.38;;
69621;SDS011;56841;55.964;37.674;2023-05-16T13:05:10;6.93;;;1.73;;
69621;SDS011;56841;55.964;37.674;2023-05-16T13:07:36;4.25;;;1.63;;
69621;SDS011;56841;55.964;37.674;2023-05-16T13:10:04;4.50;;;1.30;;
69621;SDS011;56841;55.964;37.674;2023-05-16T13:12:31;5.60;;;1.27;;
69621;SDS011;56841;55.964;37.674;2023-05-16T13:14:56;3.17;;;1.38;;
69621;SDS011;56841;55.964;37.674;2023-05-16T13:17:22;2.95;;;1.15;;
69621;SDS011;56841;55.964;37.674;2023-05-16T13:19:48;1.90;;;1.15;;
69621;SDS011;56841;55.964;37.674;2023-05-16T13:22:14;3.53;;;1.52;;
69621;SDS011;56841;55.964;37.674;2023-05-16T13:24:40;2.65;;;1.10;;
69621;SDS011;56841;55.964;37.674;2023-05-16T13:27:06;3.33;;;1.40;;
69621;SDS011;56841;55.964;37.674;2023-05-16T13:29:31;5.20;;;1.30;;
69621;SDS011;56841;55.964;37.674;2023-05-16T13:31:57;2.40;;;1.30;;
69621;SDS011;56841;55.964;37.674;2023-05-16T13:34:23;4.15;;;1.30;;
69621;SDS011;56841;55.964;37.674;2023-05-16T13:36:49;3.92;;;1.33;;
69621;SDS011;56841;55.964;37.674;2023-05-16T13:39:15;4.55;;;1.20;;
69621;SDS011;56841;55.964;37.674;2023-05-16T13:41:40;6.97;;;1.63;;
69621;SDS011;56841;55.964;37.674;2023-05-16T13:44:07;5.68;;;1.20;;
69621;SDS011;56841;55.964;37.674;2023-05-16T13:46:32;2.97;;;1.23;;
69621;SDS011;56841;55.964;37.674;2023-05-16T13:48:58;4.43;;;1.23;;
69621;SDS011;56841;55.964;37.674;2023-05-16T13:51:24;2.20;;;0.93;;
69621;SDS011;56841;55.964;37.674;2023-05-16T13:53:50;4.90;;;1.27;;
69621;SDS011;56841;55.964;37.674;2023-05-16T13:56:16;4.10;;;1.27;;
69621;SDS011;56841;55.964;37.674;2023-05-16T13:58:42;17.85;;;6.93;;
69621;SDS011;56841;55.964;37.674;2023-05-16T14:01:08;7.55;;;2.15;;
69621;SDS011;56841;55.964;37.674;2023-05-16T14:03:33;3.85;;;1.20;;
69621;SDS011;56841;55.964;37.674;2023-05-16T14:06:01;8.63;;;1.30;;
69621;SDS011;56841;55.964;37.674;2023-05-16T14:08:27;6.13;;;1.30;;
69621;SDS011;56841;55.964;37.674;2023-05-16T14:10:53;4.30;;;1.20;;
69621;SDS011;56841;55.964;37.674;2023-05-16T14:13:19;1.88;;;1.00;;
69621;SDS011;56841;55.964;37.674;2023-05-16T14:15:45;4.55;;;0.93;;
69621;SDS011;56841;55.964;37.674;2023-05-16T14:18:11;3.15;;;1.35;;
69621;SDS011;56841;55.964;37.674;2023-05-16T14:20:37;2.40;;;1.50;;
69621;SDS011;56841;55.964;37.674;2023-05-16T14:23:03;5.43;;;1.67;;
69621;SDS011;56841;55.964;37.674;2023-05-16T14:25:29;3.00;;;1.25;;
69621;SDS011;56841;55.964;37.674;2023-05-16T14:27:55;3.15;;;1.48;;
69621;SDS011;56841;55.964;37.674;2023-05-16T14:30:21;2.90;;;1.13;;
69621;SDS011;56841;55.964;37.674;2023-05-16T14:32:47;4.68;;;1.40;;
69621;SDS011;56841;55.964;37.674;2023-05-16T14:35:12;3.10;;;1.15;;
69621;SDS011;56841;55.964;37.674;2023-05-16T14:37:38;5.00;;;1.23;;
69621;SDS011;56841;55.964;37.674;2023-05-16T14:40:04;4.78;;;1.00;;
69621;SDS011;56841;55.964;37.674;2023-05-16T14:42:31;4.55;;;1.02;;
69621;SDS011;56841;55.964;37.674;2023-05-16T14:44:56;3.60;;;1.35;;
69621;SDS011;56841;55.964;37.674;2023-05-16T14:47:22;4.47;;;1.13;;
69621;SDS011;56841;55.964;37.674;2023-05-16T14:49:48;1.92;;;1.23;;
69621;SDS011;56841;55.964;37.674;2023-05-16T14:52:14;6.35;;;1.30;;
69621;SDS011;56841;55.964;37.674;2023-05-16T14:54:40;4.13;;;1.33;;